createdAt,value
2019-04-20T00:00:42.000Z,0
2019-04-20T00:03:06.000Z,0
2019-04-20T00:04:18.000Z,0
2019-04-20T00:05:30.000Z,0
2019-04-20T00:06:43.804Z,0
2019-04-20T00:07:55.000Z,0
2019-04-20T00:09:07.000Z,0
2019-04-20T00:10:20.375Z,0
2019-04-20T00:11:32.575Z,0
2019-04-20T00:12:44.000Z,0
2019-04-20T00:13:56.000Z,0
2019-04-20T00:15:09.000Z,0
2019-04-20T00:16:21.334Z,0
2019-04-20T00:17:33.000Z,0
2019-04-20T00:18:45.000Z,0
2019-04-20T00:19:56.000Z,0
2019-04-20T00:21:09.000Z,0
2019-04-20T00:22:21.000Z,0
2019-04-20T00:23:33.000Z,0
2019-04-20T00:25:57.000Z,0
2019-04-20T00:27:11.113Z,0
2019-04-20T00:28:22.000Z,0
2019-04-20T00:29:35.512Z,0
2019-04-20T00:30:46.000Z,0
2019-04-20T00:31:58.000Z,0
2019-04-20T00:33:11.000Z,0
2019-04-20T00:34:24.000Z,0
2019-04-20T00:35:35.000Z,0
2019-04-20T00:36:47.000Z,0
2019-04-20T00:37:59.000Z,0
2019-04-20T00:39:12.000Z,0
2019-04-20T00:40:24.000Z,0
2019-04-20T00:41:36.000Z,0
2019-04-20T00:42:48.000Z,0
2019-04-20T00:44:00.000Z,0
2019-04-20T00:45:13.000Z,0
2019-04-20T00:46:25.000Z,0
2019-04-20T00:47:38.000Z,0
2019-04-20T00:48:50.000Z,0
2019-04-20T00:50:01.000Z,0
2019-04-20T00:51:14.000Z,0
2019-04-20T00:52:26.000Z,0
2019-04-20T00:53:38.000Z,0
2019-04-20T00:54:50.000Z,0
2019-04-20T00:56:02.000Z,0
2019-04-20T00:57:14.000Z,0
2019-04-20T00:58:28.000Z,0
2019-04-20T00:59:39.000Z,0
2019-04-20T01:00:52.000Z,0
2019-04-20T01:02:04.780Z,0
2019-04-20T01:03:16.973Z,0
2019-04-20T01:04:29.208Z,0
2019-04-20T01:05:41.000Z,0
2019-04-20T01:06:52.000Z,0
2019-04-20T01:09:17.940Z,0
2019-04-20T01:10:29.000Z,0
2019-04-20T01:11:41.000Z,0
2019-04-20T01:12:53.000Z,0
2019-04-20T01:14:06.000Z,0
2019-04-20T01:15:17.000Z,0
2019-04-20T01:16:31.116Z,0
2019-04-20T01:17:42.000Z,0
2019-04-20T01:18:54.000Z,0
2019-04-20T01:20:06.000Z,0
2019-04-20T01:21:18.000Z,0
2019-04-20T01:22:31.000Z,0
2019-04-20T01:23:44.002Z,0
2019-04-20T01:24:55.000Z,0
2019-04-20T01:26:07.000Z,0
2019-04-20T01:27:20.000Z,0
2019-04-20T01:28:32.000Z,0
2019-04-20T01:29:44.000Z,0
2019-04-20T01:30:57.000Z,0
2019-04-20T01:32:08.000Z,0
2019-04-20T01:33:20.000Z,0
2019-04-20T01:34:33.000Z,0
2019-04-20T01:35:45.000Z,0
2019-04-20T01:36:57.000Z,0
2019-04-20T01:38:09.000Z,0
2019-04-20T01:39:21.000Z,0
2019-04-20T01:40:33.000Z,0
2019-04-20T01:41:46.000Z,0
2019-04-20T01:42:58.000Z,0
2019-04-20T01:44:10.000Z,0
2019-04-20T01:45:22.000Z,0
2019-04-20T01:46:34.000Z,0
2019-04-20T01:47:47.000Z,0
2019-04-20T01:49:00.003Z,0
2019-04-20T01:50:12.600Z,0
2019-04-20T01:51:23.000Z,0
2019-04-20T01:52:36.974Z,0
2019-04-20T01:53:49.175Z,0
2019-04-20T01:55:00.000Z,0
2019-04-20T01:56:12.000Z,0
2019-04-20T01:57:24.000Z,0
2019-04-20T01:58:37.967Z,0
2019-04-20T01:59:49.000Z,0
2019-04-20T02:01:01.000Z,0
2019-04-20T02:02:13.000Z,0
2019-04-20T02:03:26.000Z,0
2019-04-20T02:05:50.000Z,0
2019-04-20T02:07:02.000Z,0
2019-04-20T02:08:14.000Z,0
2019-04-20T02:09:27.070Z,0
2019-04-20T02:10:39.890Z,0
2019-04-20T02:15:28.659Z,0
2019-04-20T02:17:53.038Z,0
2019-04-20T02:20:17.427Z,0
2019-04-20T02:21:29.607Z,0
2019-04-20T02:22:41.796Z,0
2019-04-20T02:26:18.353Z,0
2019-04-20T02:28:42.734Z,0
2019-04-20T02:31:07.129Z,0
2019-04-20T02:33:31.522Z,0
2019-04-20T02:35:55.921Z,0
2019-04-20T02:39:32.507Z,0
2019-04-20T02:47:56.000Z,0
2019-04-20T02:49:09.000Z,0
2019-04-20T02:50:21.000Z,0
2019-04-20T02:51:33.000Z,0
2019-04-20T02:52:45.000Z,0
2019-04-20T02:53:58.878Z,0
2019-04-20T02:55:10.000Z,0
2019-04-20T02:56:23.000Z,0
2019-04-20T02:57:35.000Z,0
2019-04-20T02:58:46.000Z,0
2019-04-20T02:59:59.000Z,0
2019-04-20T03:01:11.000Z,0
2019-04-20T03:02:23.000Z,0
2019-04-20T03:03:35.000Z,0
2019-04-20T03:04:48.000Z,0
2019-04-20T03:06:00.856Z,0
2019-04-20T03:07:12.000Z,0
2019-04-20T03:08:24.000Z,0
2019-04-20T03:09:36.000Z,0
2019-04-20T03:10:49.000Z,0
2019-04-20T03:12:01.000Z,0
2019-04-20T03:14:25.000Z,0
2019-04-20T03:15:38.000Z,0
2019-04-20T03:16:50.000Z,0
2019-04-20T03:18:01.000Z,0
2019-04-20T03:19:15.047Z,0
2019-04-20T03:20:26.000Z,0
2019-04-20T03:21:39.000Z,0
2019-04-20T03:22:51.000Z,0
2019-04-20T03:24:03.863Z,0
2019-04-20T03:25:15.000Z,0
2019-04-20T03:26:27.000Z,0
2019-04-20T03:28:51.000Z,4
2019-04-20T03:30:04.000Z,4
2019-04-20T03:31:16.000Z,0
2019-04-20T03:32:29.000Z,4
2019-04-20T03:33:41.000Z,4
2019-04-20T03:34:52.000Z,4
2019-04-20T03:36:05.000Z,8
2019-04-20T03:37:17.000Z,8
2019-04-20T03:38:30.000Z,12
2019-04-20T03:39:42.000Z,12
2019-04-20T03:40:54.679Z,12
2019-04-20T03:42:06.886Z,16
2019-04-20T03:43:19.000Z,16
2019-04-20T03:44:31.289Z,24
2019-04-20T03:45:43.000Z,24
2019-04-20T03:46:54.000Z,28
2019-04-20T03:48:07.000Z,36
2019-04-20T03:49:20.000Z,40
2019-04-20T03:50:32.000Z,48
2019-04-20T03:51:44.000Z,52
2019-04-20T03:52:55.000Z,64
2019-04-20T03:54:08.000Z,72
2019-04-20T03:55:21.000Z,80
2019-04-20T03:56:32.000Z,92
2019-04-20T03:57:45.544Z,104
2019-04-20T03:58:57.747Z,120
2019-04-20T04:00:09.000Z,128
2019-04-20T04:01:21.000Z,148
2019-04-20T04:02:33.000Z,164
2019-04-20T04:03:46.554Z,180
2019-04-20T04:04:57.000Z,200
2019-04-20T04:06:10.000Z,220
2019-04-20T04:07:23.000Z,240
2019-04-20T04:08:35.360Z,256
2019-04-20T04:09:47.000Z,280
2019-04-20T04:10:59.764Z,304
2019-04-20T04:12:11.000Z,320
2019-04-20T04:13:24.000Z,344
2019-04-20T04:14:36.351Z,372
2019-04-20T04:15:48.000Z,396
2019-04-20T04:17:00.742Z,424
2019-04-20T04:18:12.000Z,452
2019-04-20T04:19:25.129Z,476
2019-04-20T04:20:37.329Z,508
2019-04-20T04:21:48.000Z,544
2019-04-20T04:23:01.000Z,576
2019-04-20T04:24:13.000Z,608
2019-04-20T04:25:25.000Z,636
2019-04-20T04:26:38.000Z,664
2019-04-20T04:27:50.481Z,696
2019-04-20T04:29:02.000Z,728
2019-04-20T04:30:14.000Z,756
2019-04-20T04:31:26.000Z,788
2019-04-20T04:32:39.000Z,820
2019-04-20T04:33:50.000Z,852
2019-04-20T04:35:02.000Z,884
2019-04-20T04:36:15.000Z,912
2019-04-20T04:37:28.000Z,940
2019-04-20T04:38:39.000Z,972
2019-04-20T04:39:51.000Z,1000
2019-04-20T04:41:04.000Z,1028
2019-04-20T04:42:16.000Z,1056
2019-04-20T04:43:28.000Z,1080
2019-04-20T04:44:41.000Z,1112
2019-04-20T04:45:53.000Z,1136
2019-04-20T04:47:04.000Z,1164
2019-04-20T04:48:17.000Z,1188
2019-04-20T04:49:29.000Z,1212
2019-04-20T04:50:41.000Z,1236
2019-04-20T04:53:06.000Z,1284
2019-04-20T04:54:18.000Z,1312
2019-04-20T04:55:30.000Z,1332
2019-04-20T04:56:42.000Z,1356
2019-04-20T04:57:55.000Z,1376
2019-04-20T04:59:07.000Z,1400
2019-04-20T05:00:19.000Z,1416
2019-04-20T05:01:31.000Z,1440
2019-04-20T05:02:44.024Z,1460
2019-04-20T05:03:56.000Z,1484
2019-04-20T05:05:07.000Z,1504
2019-04-20T05:06:20.000Z,1520
2019-04-20T05:07:32.000Z,1540
2019-04-20T05:08:45.000Z,1564
2019-04-20T05:09:56.000Z,1580
2019-04-20T05:11:09.589Z,1600
2019-04-20T05:12:21.789Z,1616
2019-04-20T05:13:32.000Z,1632
2019-04-20T05:14:45.000Z,1652
2019-04-20T05:15:57.000Z,1668
2019-04-20T05:18:22.000Z,1704
2019-04-20T05:19:34.092Z,1720
2019-04-20T05:20:47.011Z,1740
2019-04-20T05:21:59.308Z,1760
2019-04-20T05:23:10.000Z,1776
2019-04-20T05:24:23.706Z,1792
2019-04-20T05:25:34.000Z,1808
2019-04-20T05:26:47.000Z,1824
2019-04-20T05:27:59.000Z,1836
2019-04-20T05:29:12.000Z,1856
2019-04-20T05:30:23.000Z,1872
2019-04-20T05:31:35.000Z,1884
2019-04-20T05:32:48.000Z,1900
2019-04-20T05:34:00.000Z,1916
2019-04-20T05:35:13.439Z,1928
2019-04-20T05:36:25.000Z,1944
2019-04-20T05:37:36.000Z,1960
2019-04-20T05:38:49.000Z,1976
2019-04-20T05:40:01.000Z,1988
2019-04-20T05:41:13.000Z,2000
2019-04-20T05:42:25.000Z,2012
2019-04-20T05:43:38.823Z,2028
2019-04-20T05:44:49.000Z,2040
2019-04-20T05:46:03.216Z,2052
2019-04-20T05:47:15.418Z,2068
2019-04-20T05:49:38.000Z,2092
2019-04-20T05:50:52.005Z,2108
2019-04-20T05:52:04.236Z,2116
2019-04-20T05:53:15.000Z,2136
2019-04-20T05:54:28.000Z,2148
2019-04-20T05:55:40.000Z,2164
2019-04-20T05:56:52.958Z,2176
2019-04-20T05:58:04.000Z,2192
2019-04-20T05:59:17.000Z,2204
2019-04-20T06:00:28.000Z,2208
2019-04-20T06:01:40.000Z,2220
2019-04-20T06:02:53.000Z,2240
2019-04-20T06:04:05.000Z,2256
2019-04-20T06:05:17.000Z,2264
2019-04-20T06:06:30.000Z,2272
2019-04-20T06:07:42.000Z,2288
2019-04-20T06:08:54.918Z,2296
2019-04-20T06:10:06.000Z,2308
2019-04-20T06:11:19.000Z,2324
2019-04-20T06:12:31.000Z,2336
2019-04-20T06:13:43.000Z,2348
2019-04-20T06:14:55.000Z,2360
2019-04-20T06:16:07.000Z,2372
2019-04-20T06:17:19.000Z,2380
2019-04-20T06:18:31.000Z,2388
2019-04-20T06:19:43.000Z,2400
2019-04-20T06:20:56.000Z,2416
2019-04-20T06:22:08.000Z,2424
2019-04-20T06:23:21.267Z,2436
2019-04-20T06:24:33.000Z,2452
2019-04-20T06:25:45.000Z,2460
2019-04-20T06:26:57.000Z,2476
2019-04-20T06:28:09.000Z,2484
2019-04-20T06:29:21.000Z,2492
2019-04-20T06:30:34.434Z,2512
2019-04-20T06:31:46.609Z,2520
2019-04-20T06:32:57.000Z,2528
2019-04-20T06:34:10.000Z,2548
2019-04-20T06:35:22.000Z,2560
2019-04-20T06:36:35.000Z,2568
2019-04-20T06:37:47.000Z,2580
2019-04-20T06:38:59.000Z,2592
2019-04-20T06:40:11.000Z,2604
2019-04-20T06:41:23.000Z,2620
2019-04-20T06:42:36.000Z,2632
2019-04-20T06:43:48.000Z,2652
2019-04-20T06:45:00.735Z,2668
2019-04-20T06:46:12.000Z,2684
2019-04-20T06:47:24.000Z,2704
2019-04-20T06:48:37.000Z,2720
2019-04-20T06:49:49.000Z,2732
2019-04-20T06:52:13.000Z,2760
2019-04-20T06:53:25.000Z,2772
2019-04-20T06:54:37.000Z,2780
2019-04-20T06:55:49.000Z,2788
2019-04-20T06:57:02.000Z,2808
2019-04-20T06:58:13.000Z,2828
2019-04-20T06:59:26.000Z,2844
2019-04-20T07:00:38.000Z,2860
2019-04-20T07:01:51.000Z,2884
2019-04-20T07:03:03.000Z,2896
2019-04-20T07:04:14.000Z,2920
2019-04-20T07:05:26.000Z,2916
2019-04-20T07:06:40.192Z,2912
2019-04-20T07:07:52.000Z,2948
2019-04-20T07:09:04.528Z,2976
2019-04-20T07:10:16.000Z,3004
2019-04-20T07:11:28.000Z,3028
2019-04-20T07:12:40.000Z,3060
2019-04-20T07:13:53.026Z,3092
2019-04-20T07:15:05.461Z,3120
2019-04-20T07:16:17.000Z,3148
2019-04-20T07:17:29.000Z,3176
2019-04-20T07:18:41.000Z,3196
2019-04-20T07:19:53.000Z,3208
2019-04-20T07:21:06.000Z,3212
2019-04-20T07:22:18.000Z,3212
2019-04-20T07:23:30.000Z,3224
2019-04-20T07:24:42.924Z,3240
2019-04-20T07:27:07.000Z,3284
2019-04-20T07:28:19.000Z,3312
2019-04-20T07:30:43.000Z,3376
2019-04-20T07:31:55.000Z,3408
2019-04-20T07:33:07.000Z,3440
2019-04-20T07:34:20.395Z,3472
2019-04-20T07:35:32.000Z,3508
2019-04-20T07:36:43.000Z,3552
2019-04-20T07:37:56.000Z,3604
2019-04-20T07:39:08.000Z,3656
2019-04-20T07:40:20.000Z,3688
2019-04-20T07:41:32.000Z,3728
2019-04-20T07:42:45.000Z,3776
2019-04-20T07:43:57.000Z,3816
2019-04-20T07:47:33.000Z,3928
2019-04-20T07:52:23.157Z,4060
2019-04-20T07:53:34.000Z,4112
2019-04-20T07:54:47.000Z,4148
2019-04-20T07:55:59.000Z,4212
2019-04-20T07:57:11.000Z,4272
2019-04-20T07:58:24.086Z,4312
2019-04-20T07:59:35.000Z,4392
2019-04-20T08:00:48.000Z,4424
2019-04-20T08:01:59.000Z,4548
2019-04-20T08:03:12.832Z,5008
2019-04-20T08:04:24.000Z,5332
2019-04-20T08:05:36.000Z,5992
2019-04-20T08:06:48.000Z,20512
2019-04-20T08:08:01.000Z,50176
2019-04-20T08:09:12.000Z,55488
2019-04-20T08:10:25.000Z,55296
2019-04-20T08:11:38.175Z,53408
2019-04-20T08:12:50.352Z,52416
2019-04-20T08:14:01.000Z,51168
2019-04-20T08:15:14.731Z,52768
2019-04-20T08:16:26.000Z,49952
2019-04-20T08:17:38.000Z,47008
2019-04-20T08:18:50.000Z,42720
2019-04-20T08:20:03.000Z,39168
2019-04-20T08:21:15.000Z,40384
2019-04-20T08:22:27.000Z,42336
2019-04-20T08:23:38.000Z,44832
2019-04-20T08:24:52.216Z,47328
2019-04-20T08:26:04.552Z,48576
2019-04-20T08:27:16.000Z,43680
2019-04-20T08:28:28.000Z,34880
2019-04-20T08:29:40.000Z,20448
2019-04-20T08:30:52.000Z,12340
2019-04-20T08:32:04.000Z,9120
2019-04-20T08:33:17.000Z,8524
2019-04-20T08:34:29.669Z,8144
2019-04-20T08:35:41.000Z,7828
2019-04-20T08:36:53.000Z,7716
2019-04-20T08:38:05.000Z,7528
2019-04-20T08:39:18.000Z,7228
2019-04-20T08:40:30.593Z,7076
2019-04-20T08:41:42.000Z,7012
2019-04-20T08:42:54.000Z,7036
2019-04-20T08:44:06.000Z,6960
2019-04-20T08:45:18.000Z,7020
2019-04-20T08:46:31.000Z,6968
2019-04-20T08:47:43.671Z,6972
2019-04-20T08:48:55.000Z,6880
2019-04-20T08:50:07.000Z,6820
2019-04-20T08:51:20.216Z,6800
2019-04-20T08:52:32.403Z,6768
2019-04-20T08:53:44.582Z,6740
2019-04-20T08:54:56.772Z,6752
2019-04-20T08:56:08.961Z,6764
2019-04-20T08:57:20.000Z,6508
2019-04-20T08:58:32.000Z,6980
2019-04-20T08:59:44.000Z,7000
2019-04-20T09:00:57.000Z,6932
2019-04-20T09:02:09.000Z,7048
2019-04-20T09:03:22.070Z,7044
2019-04-20T09:04:33.000Z,7176
2019-04-20T09:05:46.000Z,7236
2019-04-20T09:06:57.000Z,7244
2019-04-20T09:08:10.081Z,7244
2019-04-20T09:09:22.996Z,7260
2019-04-20T09:10:34.000Z,7236
2019-04-20T09:11:47.000Z,7216
2019-04-20T09:12:59.549Z,7184
2019-04-20T09:14:11.000Z,7168
2019-04-20T09:15:23.000Z,7180
2019-04-20T09:16:35.000Z,7120
2019-04-20T09:17:47.000Z,7132
2019-04-20T09:19:00.000Z,7108
2019-04-20T09:20:12.000Z,7096
2019-04-20T09:21:23.000Z,7156
2019-04-20T09:22:54.000Z,7152
2019-04-20T09:23:48.000Z,7136
2019-04-20T09:25:01.000Z,7120
2019-04-20T09:26:13.000Z,7120
2019-04-20T09:27:25.721Z,7204
2019-04-20T09:28:36.000Z,7068
2019-04-20T09:29:49.000Z,7440
2019-04-20T09:31:02.000Z,7436
2019-04-20T09:32:14.000Z,7048
2019-04-20T09:33:26.000Z,6268
2019-04-20T09:34:38.000Z,6040
2019-04-20T09:35:50.000Z,6280
2019-04-20T09:37:02.000Z,6264
2019-04-20T09:38:15.344Z,6296
2019-04-20T09:39:26.000Z,6404
2019-04-20T09:40:39.000Z,6620
2019-04-20T09:41:51.000Z,6868
2019-04-20T09:43:03.000Z,7108
2019-04-20T09:44:15.000Z,7136
2019-04-20T09:45:28.000Z,7048
2019-04-20T09:46:40.000Z,7304
2019-04-20T09:47:51.000Z,7552
2019-04-20T09:49:04.000Z,7552
2019-04-20T09:50:17.152Z,7704
2019-04-20T09:51:29.000Z,7824
2019-04-20T09:52:41.000Z,7932
2019-04-20T09:53:53.000Z,7844
2019-04-20T09:55:05.000Z,7652
2019-04-20T09:57:29.000Z,7668
2019-04-20T09:58:42.000Z,7644
2019-04-20T09:59:54.000Z,7432
2019-04-20T10:02:18.000Z,7164
2019-04-20T10:03:30.000Z,7112
2019-04-20T10:04:42.000Z,7100
2019-04-20T10:05:55.000Z,6972
2019-04-20T10:07:07.000Z,6884
2019-04-20T10:08:19.000Z,6944
2019-04-20T10:09:31.000Z,7036
2019-04-20T10:10:44.000Z,7064
2019-04-20T10:11:56.000Z,7084
2019-04-20T10:13:07.000Z,6904
2019-04-20T10:14:20.000Z,6788
2019-04-20T10:15:32.000Z,6824
2019-04-20T10:16:44.000Z,6784
2019-04-20T10:17:57.000Z,6716
2019-04-20T10:19:09.000Z,6608
2019-04-20T10:20:21.782Z,6472
2019-04-20T10:21:33.000Z,6384
2019-04-20T10:22:45.000Z,6412
2019-04-20T10:23:58.333Z,6400
2019-04-20T10:25:10.511Z,6340
2019-04-20T10:26:22.000Z,6320
2019-04-20T10:27:34.000Z,6372
2019-04-20T10:28:46.000Z,6300
2019-04-20T10:29:58.000Z,6300
2019-04-20T10:31:11.000Z,6288
2019-04-20T10:32:22.000Z,6328
2019-04-20T10:33:34.000Z,6364
2019-04-20T10:34:47.000Z,6416
2019-04-20T10:35:59.000Z,6448
2019-04-20T10:37:12.000Z,6468
2019-04-20T10:38:24.000Z,6376
2019-04-20T10:39:36.780Z,6268
2019-04-20T10:40:48.971Z,5436
2019-04-20T10:42:01.166Z,5472
2019-04-20T10:43:13.000Z,5768
2019-04-20T10:44:24.000Z,5840
2019-04-20T10:45:37.000Z,5820
2019-04-20T10:46:49.931Z,5732
2019-04-20T10:48:01.000Z,5804
2019-04-20T10:49:14.000Z,5808
2019-04-20T10:50:26.000Z,5992
2019-04-20T10:51:37.000Z,6180
2019-04-20T10:52:50.854Z,6364
2019-04-20T10:54:02.000Z,6400
2019-04-20T10:55:14.000Z,6156
2019-04-20T10:56:27.000Z,6004
2019-04-20T10:57:39.579Z,5844
2019-04-20T10:58:51.000Z,5712
2019-04-20T11:00:03.000Z,5644
2019-04-20T11:01:15.000Z,5604
2019-04-20T11:02:27.000Z,5648
2019-04-20T11:03:40.000Z,5812
2019-04-20T11:04:52.000Z,5844
2019-04-20T11:06:04.000Z,5852
2019-04-20T11:07:16.000Z,5840
2019-04-20T11:08:28.000Z,5844
2019-04-20T11:09:41.000Z,5884
2019-04-20T11:10:53.000Z,5928
2019-04-20T11:12:05.000Z,5976
2019-04-20T11:13:17.000Z,6028
2019-04-20T11:14:29.000Z,6076
2019-04-20T11:15:41.000Z,6136
2019-04-20T11:16:54.000Z,6196
2019-04-20T11:18:06.000Z,6248
2019-04-20T11:19:18.891Z,6284
2019-04-20T11:20:30.000Z,6324
2019-04-20T11:21:42.000Z,6344
2019-04-20T11:22:55.000Z,6360
2019-04-20T11:24:07.000Z,6348
2019-04-20T11:25:18.000Z,6268
2019-04-20T11:26:31.947Z,6184
2019-04-20T11:27:44.130Z,6056
2019-04-20T11:28:56.000Z,5688
2019-04-20T11:30:07.000Z,5488
2019-04-20T11:31:19.000Z,5692
2019-04-20T11:32:32.000Z,5736
2019-04-20T11:33:44.000Z,5492
2019-04-20T11:34:57.000Z,5500
2019-04-20T11:36:09.000Z,5280
2019-04-20T11:37:21.000Z,5168
2019-04-20T11:38:33.778Z,5340
2019-04-20T11:39:45.000Z,5176
2019-04-20T11:40:58.000Z,5228
2019-04-20T11:42:09.000Z,5484
2019-04-20T11:43:22.500Z,5408
2019-04-20T11:44:33.000Z,5380
2019-04-20T11:48:11.000Z,5616
2019-04-20T11:49:23.000Z,5616
2019-04-20T11:50:35.599Z,5640
2019-04-20T11:51:47.782Z,5684
2019-04-20T11:52:59.000Z,5672
2019-04-20T11:54:12.000Z,5612
2019-04-20T11:55:24.000Z,5560
2019-04-20T11:56:35.000Z,5492
2019-04-20T11:57:47.000Z,5420
2019-04-20T11:59:00.000Z,5332
2019-04-20T12:00:12.000Z,5224
2019-04-20T12:01:25.285Z,5064
2019-04-20T12:02:37.472Z,5068
2019-04-20T12:03:49.000Z,5044
2019-04-20T12:06:13.000Z,4808
2019-04-20T12:07:26.198Z,4920
2019-04-20T12:08:38.000Z,4948
2019-04-20T12:09:50.000Z,4956
2019-04-20T12:11:02.736Z,4948
2019-04-20T12:12:14.918Z,5048
2019-04-20T12:13:26.000Z,5100
2019-04-20T12:14:38.000Z,5140
2019-04-20T12:15:50.000Z,5128
2019-04-20T12:17:03.000Z,5236
2019-04-20T12:18:14.000Z,5272
2019-04-20T12:19:27.000Z,5288
2019-04-20T12:20:39.000Z,5292
2019-04-20T12:21:52.039Z,5304
2019-04-20T12:23:04.000Z,5304
2019-04-20T12:24:16.000Z,5288
2019-04-20T12:25:27.000Z,5280
2019-04-20T12:26:41.129Z,5252
2019-04-20T12:27:53.310Z,5260
2019-04-20T12:29:04.000Z,5248
2019-04-20T12:30:16.000Z,5204
2019-04-20T12:31:29.852Z,5148
2019-04-20T12:32:41.000Z,4780
2019-04-20T12:33:53.000Z,5136
2019-04-20T12:35:05.000Z,5168
2019-04-20T12:36:18.000Z,5168
2019-04-20T12:37:29.000Z,5248
2019-04-20T12:38:42.953Z,5300
2019-04-20T12:39:55.000Z,5260
2019-04-20T12:41:07.327Z,5132
2019-04-20T12:42:19.000Z,5384
2019-04-20T12:43:30.000Z,5516
2019-04-20T12:44:43.000Z,5584
2019-04-20T12:45:55.000Z,5556
2019-04-20T12:47:08.000Z,5536
2019-04-20T12:48:19.000Z,5540
2019-04-20T12:49:32.658Z,5472
2019-04-20T12:50:43.000Z,5316
2019-04-20T12:51:56.000Z,5132
2019-04-20T12:53:09.240Z,4804
2019-04-20T12:54:21.430Z,4656
2019-04-20T12:55:32.000Z,4428
2019-04-20T12:56:45.000Z,4228
2019-04-20T12:57:56.000Z,4096
2019-04-20T12:59:09.000Z,4008
2019-04-20T13:00:22.000Z,4264
2019-04-20T13:01:34.550Z,4368
2019-04-20T13:02:46.736Z,4424
2019-04-20T13:03:58.926Z,4416
2019-04-20T13:05:11.000Z,4424
2019-04-20T13:06:23.000Z,4540
2019-04-20T13:07:35.478Z,4436
2019-04-20T13:08:47.000Z,4504
2019-04-20T13:09:59.000Z,4620
2019-04-20T13:11:10.000Z,4696
2019-04-20T13:12:24.217Z,4724
2019-04-20T13:13:35.000Z,4704
2019-04-20T13:14:48.000Z,4660
2019-04-20T13:16:00.000Z,4652
2019-04-20T13:17:11.000Z,4632
2019-04-20T13:18:24.000Z,4612
2019-04-20T13:19:37.000Z,4592
2019-04-20T13:20:48.000Z,4548
2019-04-20T13:22:01.706Z,4516
2019-04-20T13:23:13.000Z,4484
2019-04-20T13:25:38.269Z,4452
2019-04-20T13:26:50.000Z,4440
2019-04-20T13:28:02.000Z,4432
2019-04-20T13:29:14.000Z,4424
2019-04-20T13:30:26.000Z,4436
2019-04-20T13:31:38.000Z,4448
2019-04-20T13:32:50.000Z,4460
2019-04-20T13:34:02.000Z,4468
2019-04-20T13:35:15.000Z,4476
2019-04-20T13:36:27.000Z,4484
2019-04-20T13:37:39.000Z,4480
2019-04-20T13:38:52.000Z,4456
2019-04-20T13:40:04.561Z,4440
2019-04-20T13:42:28.953Z,4420
2019-04-20T13:43:40.000Z,4384
2019-04-20T13:44:52.000Z,4328
2019-04-20T13:46:05.000Z,4256
2019-04-20T13:47:17.692Z,4172
2019-04-20T13:48:29.000Z,4112
2019-04-20T13:49:41.000Z,4000
2019-04-20T13:50:54.000Z,3864
2019-04-20T13:52:06.000Z,3732
2019-04-20T13:53:17.000Z,3860
2019-04-20T13:54:30.000Z,4000
2019-04-20T13:55:42.000Z,4084
2019-04-20T13:56:55.191Z,4112
2019-04-20T13:58:07.000Z,4112
2019-04-20T13:59:19.000Z,4116
2019-04-20T14:00:30.000Z,4100
2019-04-20T14:01:43.000Z,4084
2019-04-20T14:02:55.000Z,4084
2019-04-20T14:04:07.000Z,4076
2019-04-20T14:05:20.000Z,4072
2019-04-20T14:06:32.667Z,4064
2019-04-20T14:07:44.000Z,4064
2019-04-20T14:08:56.000Z,4048
2019-04-20T14:10:09.000Z,4036
2019-04-20T14:11:20.000Z,4020
2019-04-20T14:12:33.600Z,4016
2019-04-20T14:13:45.000Z,4008
2019-04-20T14:14:57.000Z,4004
2019-04-20T14:16:09.000Z,4000
2019-04-20T14:17:22.349Z,4004
2019-04-20T14:18:34.000Z,4020
2019-04-20T14:19:46.000Z,4036
2019-04-20T14:20:57.000Z,4032
2019-04-20T14:22:10.000Z,4028
2019-04-20T14:23:22.000Z,4036
2019-04-20T14:24:34.000Z,4040
2019-04-20T14:25:47.000Z,4048
2019-04-20T14:26:59.000Z,4060
2019-04-20T14:28:11.000Z,4072
2019-04-20T14:29:23.000Z,4080
2019-04-20T14:30:36.000Z,4088
2019-04-20T14:31:48.000Z,4084
2019-04-20T14:33:00.000Z,4072
2019-04-20T14:34:12.930Z,4060
2019-04-20T14:35:25.012Z,4052
2019-04-20T14:37:49.494Z,4040
2019-04-20T14:39:01.673Z,4032
2019-04-20T14:40:13.862Z,4028
2019-04-20T14:41:26.046Z,4020
2019-04-20T14:42:37.000Z,4020
2019-04-20T14:43:50.000Z,4024
2019-04-20T14:45:02.059Z,4032
2019-04-20T14:46:14.000Z,4036
2019-04-20T14:47:26.000Z,4040
2019-04-20T14:48:38.000Z,4036
2019-04-20T14:49:51.000Z,4028
2019-04-20T14:51:03.000Z,4020
2019-04-20T14:52:15.691Z,4016
2019-04-20T14:53:26.000Z,4000
2019-04-20T14:54:39.000Z,3992
2019-04-20T14:55:51.000Z,3980
2019-04-20T14:57:04.447Z,3964
2019-04-20T14:58:15.000Z,3956
2019-04-20T14:59:28.000Z,3944
2019-04-20T15:00:40.000Z,3936
2019-04-20T15:01:53.151Z,3928
2019-04-20T15:03:05.000Z,3916
2019-04-20T15:04:16.000Z,3904
2019-04-20T15:05:29.687Z,3884
2019-04-20T15:06:41.000Z,3860
2019-04-20T15:07:53.000Z,3848
2019-04-20T15:09:05.000Z,3856
2019-04-20T15:10:18.000Z,3848
2019-04-20T15:11:30.571Z,3824
2019-04-20T15:12:42.000Z,3816
2019-04-20T15:13:54.092Z,3808
2019-04-20T15:15:06.000Z,3800
2019-04-20T15:16:19.000Z,3784
2019-04-20T15:17:31.453Z,3764
2019-04-20T15:18:43.000Z,3744
2019-04-20T15:19:55.000Z,3724
2019-04-20T15:21:07.000Z,3712
2019-04-20T15:22:19.000Z,3704
2019-04-20T15:23:32.000Z,3688
2019-04-20T15:24:44.000Z,3680
2019-04-20T15:25:56.000Z,3676
2019-04-20T15:27:07.000Z,3664
2019-04-20T15:28:20.000Z,3656
2019-04-20T15:29:33.000Z,3640
2019-04-20T15:30:45.000Z,3632
2019-04-20T15:31:56.000Z,3624
2019-04-20T15:33:08.000Z,3604
2019-04-20T15:34:21.000Z,3588
2019-04-20T15:35:34.155Z,3556
2019-04-20T15:36:46.000Z,3532
2019-04-20T15:37:58.000Z,3520
2019-04-20T15:39:10.000Z,3500
2019-04-20T15:40:22.881Z,3488
2019-04-20T15:41:34.000Z,3468
2019-04-20T15:42:47.000Z,3448
2019-04-20T15:43:59.000Z,3424
2019-04-20T15:46:22.000Z,3392
2019-04-20T15:47:35.000Z,3384
2019-04-20T15:48:48.000Z,3368
2019-04-20T15:50:00.356Z,3348
2019-04-20T15:51:12.000Z,3332
2019-04-20T15:52:24.000Z,3320
2019-04-20T15:53:35.000Z,3316
2019-04-20T15:54:48.000Z,3304
2019-04-20T15:56:00.000Z,3292
2019-04-20T15:57:13.000Z,3272
2019-04-20T15:59:37.000Z,3236
2019-04-20T16:00:48.000Z,3208
2019-04-20T16:03:14.000Z,3172
2019-04-20T16:04:26.521Z,3144
2019-04-20T16:05:38.000Z,3124
2019-04-20T16:06:50.000Z,3104
2019-04-20T16:08:02.000Z,3084
2019-04-20T16:09:15.024Z,3072
2019-04-20T16:10:27.000Z,3056
2019-04-20T16:11:39.621Z,3036
2019-04-20T16:12:51.000Z,3024
2019-04-20T16:14:03.000Z,3004
2019-04-20T16:15:15.000Z,2984
2019-04-20T16:16:28.000Z,2956
2019-04-20T16:17:40.599Z,2928
2019-04-20T16:18:52.000Z,2896
2019-04-20T16:20:04.000Z,2872
2019-04-20T16:21:17.099Z,2852
2019-04-20T16:22:29.000Z,2828
2019-04-20T16:23:41.000Z,2808
2019-04-20T16:24:53.000Z,2788
2019-04-20T16:26:05.000Z,2768
2019-04-20T16:27:18.027Z,2748
2019-04-20T16:28:29.000Z,2728
2019-04-20T16:29:42.383Z,2708
2019-04-20T16:30:54.000Z,2688
2019-04-20T16:32:06.770Z,2664
2019-04-20T16:33:18.000Z,2648
2019-04-20T16:34:30.000Z,2624
2019-04-20T16:35:43.300Z,2608
2019-04-20T16:36:55.000Z,2592
2019-04-20T16:38:07.000Z,2572
2019-04-20T16:39:19.858Z,2560
2019-04-20T16:40:32.080Z,2536
2019-04-20T16:41:43.000Z,2516
2019-04-20T16:42:55.000Z,2492
2019-04-20T16:44:08.623Z,2472
2019-04-20T16:45:19.000Z,2448
2019-04-20T16:46:31.000Z,2420
2019-04-20T16:47:44.000Z,2388
2019-04-20T16:48:56.000Z,2364
2019-04-20T16:50:09.000Z,2332
2019-04-20T16:51:21.000Z,2280
2019-04-20T16:52:32.000Z,2264
2019-04-20T16:53:46.088Z,2220
2019-04-20T16:55:00.000Z,2176
2019-04-20T16:56:10.000Z,2128
2019-04-20T16:57:22.646Z,2084
2019-04-20T16:58:34.835Z,2048
2019-04-20T16:59:46.000Z,2020
2019-04-20T17:00:58.000Z,1988
2019-04-20T17:02:10.000Z,1960
2019-04-20T17:03:22.000Z,1936
2019-04-20T17:04:35.000Z,1908
2019-04-20T17:05:47.000Z,1884
2019-04-20T17:08:11.000Z,1824
2019-04-20T17:09:24.000Z,1792
2019-04-20T17:10:36.069Z,1760
2019-04-20T17:11:48.877Z,1728
2019-04-20T17:13:00.000Z,1696
2019-04-20T17:14:12.000Z,1668
2019-04-20T17:15:25.000Z,1636
2019-04-20T17:16:36.000Z,1604
2019-04-20T17:19:01.000Z,1548
2019-04-20T17:20:13.000Z,1524